createdAt,value
2022-10-01T00:00:55.297Z,14.57
2022-10-01T00:03:25.088Z,14.43
2022-10-01T00:06:18.973Z,14.38
2022-10-01T00:08:48.870Z,14.38
2022-10-01T00:11:24.223Z,14.30
2022-10-01T00:13:51.364Z,14.19
2022-10-01T00:16:20.582Z,14.10
2022-10-01T00:18:48.180Z,14.09
2022-10-01T00:21:18.080Z,13.99
2022-10-01T00:23:46.134Z,13.95
2022-10-01T00:26:18.362Z,13.95
2022-10-01T00:28:47.121Z,14.00
2022-10-01T00:31:16.006Z,13.94
2022-10-01T00:33:42.967Z,13.88
2022-10-01T00:36:11.212Z,13.88
2022-10-01T00:38:40.313Z,13.75
2022-10-01T00:41:07.820Z,13.69
2022-10-01T00:43:37.943Z,13.71
2022-10-01T00:46:21.235Z,13.64
2022-10-01T00:49:06.532Z,13.56
2022-10-01T00:51:36.667Z,13.51
2022-10-01T00:54:31.276Z,13.53
2022-10-01T00:56:59.616Z,13.51
2022-10-01T00:59:26.865Z,13.45
2022-10-01T01:01:54.131Z,13.45
2022-10-01T01:04:20.917Z,13.43
2022-10-01T01:06:56.691Z,13.36
2022-10-01T01:09:34.799Z,13.40
2022-10-01T01:12:07.936Z,13.34
2022-10-01T01:15:16.499Z,13.25
2022-10-01T01:18:02.542Z,13.20
2022-10-01T01:20:47.636Z,13.15
2022-10-01T01:23:17.184Z,13.11
2022-10-01T01:25:55.892Z,13.15
2022-10-01T01:28:34.485Z,13.07
2022-10-01T01:31:05.166Z,13.05
2022-10-01T01:33:34.363Z,13.07
2022-10-01T01:36:16.374Z,13.04
2022-10-01T01:38:45.621Z,13.07
2022-10-01T01:41:13.417Z,13.02
2022-10-01T01:43:44.331Z,12.99
2022-10-01T01:46:13.341Z,12.94
2022-10-01T01:48:41.855Z,12.91
2022-10-01T01:51:19.834Z,12.89
2022-10-01T01:53:46.532Z,12.75
2022-10-01T01:56:14.223Z,12.72
2022-10-01T01:58:40.975Z,12.73
2022-10-01T02:01:07.857Z,12.73
2022-10-01T02:03:34.949Z,12.73
2022-10-01T02:06:36.331Z,12.73
2022-10-01T02:09:04.236Z,12.72
2022-10-01T02:11:37.051Z,12.72
2022-10-01T02:14:15.837Z,12.71
2022-10-01T02:16:54.070Z,12.66
2022-10-01T02:19:38.869Z,12.63
2022-10-01T02:22:12.874Z,12.65
2022-10-01T02:24:49.532Z,12.66
2022-10-01T02:27:21.080Z,12.63
2022-10-01T02:29:49.835Z,12.54
2022-10-01T02:32:18.341Z,12.53
2022-10-01T02:34:46.172Z,12.49
2022-10-01T02:37:12.820Z,12.49
2022-10-01T02:39:43.805Z,12.42
2022-10-01T02:42:12.618Z,12.43
2022-10-01T02:44:42.650Z,12.39
2022-10-01T02:47:20.934Z,12.46
2022-10-01T02:49:48.309Z,12.44
2022-10-01T02:52:35.311Z,12.42
2022-10-01T02:55:09.338Z,12.37
2022-10-01T02:57:36.841Z,12.42
2022-10-01T03:00:11.247Z,12.39
2022-10-01T03:02:38.135Z,12.41
2022-10-01T03:05:05.574Z,12.42
2022-10-01T03:07:34.732Z,12.42
2022-10-01T03:10:02.554Z,12.44
2022-10-01T03:12:29.281Z,12.38
2022-10-01T03:14:56.025Z,12.37
2022-10-01T03:17:22.748Z,12.34
2022-10-01T03:19:49.493Z,12.32
2022-10-01T03:22:22.788Z,12.37
2022-10-01T03:24:52.952Z,12.39
2022-10-01T03:27:20.740Z,12.38
2022-10-01T03:29:47.740Z,12.35
2022-10-01T03:32:15.079Z,12.30
2022-10-01T03:34:41.728Z,12.31
2022-10-01T03:37:08.404Z,12.29
2022-10-01T03:39:35.406Z,12.23
2022-10-01T03:42:02.527Z,12.24
2022-10-01T03:44:29.183Z,12.18
2022-10-01T03:46:55.901Z,12.20
2022-10-01T03:49:22.567Z,12.18
2022-10-01T03:51:49.376Z,12.17
2022-10-01T03:54:16.005Z,12.23
2022-10-01T03:56:42.739Z,12.19
2022-10-01T03:59:11.013Z,12.20
2022-10-01T04:01:39.320Z,12.15
2022-10-01T04:04:06.514Z,12.16
2022-10-01T04:06:33.272Z,12.19
2022-10-01T04:09:00.042Z,12.16
2022-10-01T04:11:26.758Z,12.19
2022-10-01T04:13:53.468Z,12.36
2022-10-01T04:16:20.192Z,12.36
2022-10-01T04:18:46.845Z,12.32
2022-10-01T04:21:15.367Z,12.31
2022-10-01T04:23:42.307Z,12.29
2022-10-01T04:26:09.506Z,12.39
2022-10-01T04:28:36.201Z,12.43
2022-10-01T04:31:21.512Z,12.63
2022-10-01T04:33:48.453Z,12.69
2022-10-01T04:36:15.199Z,12.78
2022-10-01T04:38:41.811Z,12.83
2022-10-01T04:41:09.344Z,12.85
2022-10-01T04:43:36.535Z,12.80
2022-10-01T04:46:03.134Z,12.90
2022-10-01T04:48:29.828Z,12.86
2022-10-01T04:50:56.433Z,12.87
2022-10-01T04:53:23.121Z,12.87
2022-10-01T04:55:49.754Z,12.79
2022-10-01T04:58:16.368Z,12.86
2022-10-01T05:00:43.010Z,12.79
2022-10-01T05:03:09.951Z,12.85
2022-10-01T05:05:37.333Z,12.82
2022-10-01T05:08:03.966Z,12.98
2022-10-01T05:10:31.478Z,12.94
2022-10-01T05:13:01.392Z,12.89
2022-10-01T05:15:28.785Z,13.06
2022-10-01T05:17:55.559Z,13.05
2022-10-01T05:20:25.986Z,13.06
2022-10-01T05:22:54.334Z,13.23
2022-10-01T05:25:21.114Z,13.04
2022-10-01T05:27:48.048Z,13.16
2022-10-01T05:30:24.197Z,13.16
2022-10-01T05:32:56.470Z,13.20
2022-10-01T05:35:23.208Z,13.34
2022-10-01T05:37:53.570Z,13.30
2022-10-01T05:40:20.439Z,13.46
2022-10-01T05:42:47.379Z,13.50
2022-10-01T05:45:14.078Z,13.52
2022-10-01T05:47:42.444Z,13.71
2022-10-01T05:50:09.720Z,13.89
2022-10-01T05:52:36.382Z,13.98
2022-10-01T05:55:03.096Z,13.87
2022-10-01T05:57:30.507Z,13.88
2022-10-01T05:59:58.066Z,14.04
2022-10-01T06:02:24.852Z,14.15
2022-10-01T06:04:51.684Z,14.20
2022-10-01T06:07:18.295Z,14.20
2022-10-01T06:09:45.272Z,14.19
2022-10-01T06:12:13.649Z,14.46
2022-10-01T06:14:43.036Z,14.41
2022-10-01T06:17:09.706Z,14.45
2022-10-01T06:19:36.348Z,14.57
2022-10-01T06:22:03.008Z,14.80
2022-10-01T06:24:31.126Z,14.67
2022-10-01T06:26:57.807Z,14.69
2022-10-01T06:29:24.503Z,14.78
2022-10-01T06:31:51.856Z,14.79
2022-10-01T06:34:18.513Z,14.82
2022-10-01T06:36:45.203Z,14.92
2022-10-01T06:39:11.816Z,15.00
2022-10-01T06:41:38.435Z,14.98
2022-10-01T06:44:05.129Z,15.10
2022-10-01T06:46:32.515Z,15.32
2022-10-01T06:48:59.389Z,15.38
2022-10-01T06:51:44.664Z,15.43
2022-10-01T06:54:11.440Z,15.45
2022-10-01T06:56:38.216Z,15.35
2022-10-01T06:59:04.884Z,15.51
2022-10-01T07:01:33.026Z,15.76
2022-10-01T07:04:07.370Z,15.91
2022-10-01T07:06:34.071Z,15.93
2022-10-01T07:09:00.765Z,16.13
2022-10-01T07:11:27.356Z,16.05
2022-10-01T07:13:54.780Z,15.92
2022-10-01T07:16:21.671Z,16.29
2022-10-01T07:18:48.371Z,16.36
2022-10-01T07:21:15.005Z,16.62
2022-10-01T07:23:41.705Z,16.69
2022-10-01T07:26:09.263Z,16.77
2022-10-01T07:28:35.859Z,16.61
2022-10-01T07:31:03.719Z,16.51
2022-10-01T07:33:30.581Z,16.80
2022-10-01T07:36:00.469Z,16.59
2022-10-01T07:38:27.094Z,16.60
2022-10-01T07:40:54.932Z,16.91
2022-10-01T07:43:22.114Z,17.07
2022-10-01T07:45:50.180Z,17.46
2022-10-01T07:48:16.993Z,17.24
2022-10-01T07:50:47.319Z,17.06
2022-10-01T07:53:14.271Z,17.05
2022-10-01T07:55:40.987Z,16.92
2022-10-01T07:58:07.912Z,16.83
2022-10-01T08:00:37.287Z,16.72
2022-10-01T08:03:04.472Z,16.72
2022-10-01T08:05:46.612Z,16.87
2022-10-01T08:08:14.751Z,17.14
2022-10-01T08:10:41.412Z,17.36
2022-10-01T08:13:14.998Z,17.55
2022-10-01T08:15:46.539Z,18.12
2022-10-01T08:18:13.806Z,17.94
2022-10-01T08:20:40.761Z,17.82
2022-10-01T08:23:10.443Z,18.15
2022-10-01T08:25:39.855Z,18.45
2022-10-01T08:28:07.493Z,18.41
2022-10-01T08:30:34.611Z,18.41
2022-10-01T08:33:02.041Z,18.41
2022-10-01T08:35:29.478Z,17.98
2022-10-01T08:38:01.055Z,18.45
2022-10-01T08:40:27.775Z,18.62
2022-10-01T08:43:00.106Z,18.96
2022-10-01T08:45:38.762Z,18.62
2022-10-01T08:48:26.909Z,18.59
2022-10-01T08:51:16.086Z,18.75
2022-10-01T08:53:58.555Z,19.19
2022-10-01T08:56:30.897Z,19.08
2022-10-01T08:58:59.690Z,19.02
2022-10-01T09:01:27.245Z,18.95
2022-10-01T09:03:54.300Z,18.17
2022-10-01T09:06:23.045Z,18.27
2022-10-01T09:08:55.760Z,18.20
2022-10-01T09:11:25.077Z,18.18
2022-10-01T09:14:04.215Z,18.41
2022-10-01T09:16:42.702Z,18.50
2022-10-01T09:19:15.196Z,18.30
2022-10-01T09:21:49.456Z,18.44
2022-10-01T09:24:33.860Z,18.59
2022-10-01T09:27:01.943Z,18.46
2022-10-01T09:29:40.798Z,18.18
2022-10-01T09:32:07.595Z,18.21
2022-10-01T09:34:38.208Z,18.04
2022-10-01T09:37:28.550Z,18.24
2022-10-01T09:40:04.975Z,18.38
2022-10-01T09:42:31.777Z,18.28
2022-10-01T09:44:58.732Z,18.17
2022-10-01T09:47:25.867Z,18.14
2022-10-01T09:49:52.792Z,18.43
2022-10-01T09:52:35.277Z,18.53
2022-10-01T09:55:11.529Z,18.47
2022-10-01T09:57:41.343Z,18.52
2022-10-01T10:00:10.770Z,18.61
2022-10-01T10:02:49.145Z,18.56
2022-10-01T10:05:22.243Z,18.46
2022-10-01T10:08:12.575Z,18.42
2022-10-01T10:10:40.290Z,18.33
2022-10-01T10:13:10.840Z,18.43
2022-10-01T10:15:59.171Z,18.84
2022-10-01T10:18:34.639Z,19.11
2022-10-01T10:21:09.026Z,19.18
2022-10-01T10:23:50.397Z,19.60
2022-10-01T10:26:43.474Z,19.52
2022-10-01T10:29:26.491Z,19.11
2022-10-01T10:31:55.648Z,19.48
2022-10-01T10:34:38.453Z,19.25
2022-10-01T10:37:13.921Z,19.18
2022-10-01T10:39:43.113Z,19.49
2022-10-01T10:42:15.205Z,19.64
2022-10-01T10:44:43.987Z,19.50
2022-10-01T10:47:13.785Z,19.68
2022-10-01T10:50:03.299Z,19.45
2022-10-01T10:52:36.556Z,19.32
2022-10-01T10:55:31.124Z,19.26
2022-10-01T10:58:13.300Z,19.53
2022-10-01T11:00:56.257Z,19.16
2022-10-01T11:03:26.113Z,19.44
2022-10-01T11:05:53.219Z,19.13
2022-10-01T11:08:27.839Z,18.94
2022-10-01T11:11:24.577Z,19.30
2022-10-01T11:14:09.568Z,19.34
2022-10-01T11:16:48.925Z,19.47
2022-10-01T11:19:23.785Z,19.37
2022-10-01T11:21:56.622Z,18.89
2022-10-01T11:24:38.275Z,19.06
2022-10-01T11:27:05.998Z,19.15
2022-10-01T11:29:36.100Z,19.12
2022-10-01T11:32:19.489Z,18.97
2022-10-01T11:35:05.195Z,18.59
2022-10-01T11:37:49.731Z,18.51
2022-10-01T11:40:26.053Z,18.45
2022-10-01T11:42:57.799Z,18.65
2022-10-01T11:45:29.702Z,18.66
2022-10-01T11:48:01.182Z,18.57
2022-10-01T11:50:38.510Z,18.57
2022-10-01T11:53:27.292Z,18.47
2022-10-01T11:56:15.530Z,18.58
2022-10-01T11:58:52.079Z,18.59
2022-10-01T12:01:26.146Z,18.78
2022-10-01T12:03:52.794Z,18.60
2022-10-01T12:06:58.169Z,18.54
2022-10-01T12:09:57.060Z,18.53
2022-10-01T12:12:40.241Z,18.50
2022-10-01T12:15:12.021Z,18.60
2022-10-01T12:17:45.501Z,18.64
2022-10-01T12:20:24.374Z,18.55
2022-10-01T12:22:52.113Z,18.44
2022-10-01T12:25:20.990Z,18.53
2022-10-01T12:28:00.085Z,18.58
2022-10-01T12:30:32.717Z,18.77
2022-10-01T12:33:25.695Z,18.74
2022-10-01T12:36:17.485Z,18.87
2022-10-01T12:38:44.047Z,18.84
2022-10-01T12:41:39.367Z,18.81
2022-10-01T12:44:24.764Z,18.69
2022-10-01T12:47:00.727Z,18.87
2022-10-01T12:49:48.462Z,19.10
2022-10-01T12:52:34.963Z,19.02
2022-10-01T12:55:23.429Z,18.77
2022-10-01T12:58:19.696Z,18.65
2022-10-01T13:01:03.128Z,18.23
2022-10-01T13:03:45.439Z,18.12
2022-10-01T13:06:21.349Z,18.40
2022-10-01T13:09:04.194Z,18.24
2022-10-01T13:11:56.246Z,18.49
2022-10-01T13:14:23.133Z,18.53
2022-10-01T13:16:54.576Z,18.56
2022-10-01T13:19:34.173Z,18.30
2022-10-01T13:22:19.154Z,18.18
2022-10-01T13:24:53.494Z,18.31
2022-10-01T13:27:21.734Z,18.46
2022-10-01T13:29:54.784Z,18.55
2022-10-01T13:32:30.851Z,18.57
2022-10-01T13:34:58.406Z,18.41
2022-10-01T13:37:38.785Z,18.43
2022-10-01T13:40:26.934Z,18.31
2022-10-01T13:43:02.275Z,18.25
2022-10-01T13:45:40.806Z,18.34
2022-10-01T13:48:08.011Z,18.28
2022-10-01T13:50:34.917Z,18.10
2022-10-01T13:53:15.068Z,17.81
2022-10-01T13:55:43.784Z,17.77
2022-10-01T13:58:25.118Z,18.01
2022-10-01T14:00:54.387Z,18.01
2022-10-01T14:03:46.745Z,17.75
2022-10-01T14:06:27.351Z,17.80
2022-10-01T14:09:04.827Z,17.78
2022-10-01T14:11:52.437Z,17.83
2022-10-01T14:14:41.752Z,17.87
2022-10-01T14:17:29.110Z,17.93
2022-10-01T14:20:10.261Z,17.57
2022-10-01T14:23:11.632Z,17.79
2022-10-01T14:25:51.445Z,17.82
2022-10-01T14:28:20.072Z,17.67
2022-10-01T14:31:09.099Z,17.16
2022-10-01T14:34:23.288Z,17.56
2022-10-01T14:36:51.519Z,17.26
2022-10-01T14:39:19.288Z,17.49
2022-10-01T14:41:48.390Z,17.47
2022-10-01T14:44:22.559Z,17.45
2022-10-01T14:46:50.857Z,17.36
2022-10-01T14:49:29.591Z,17.35
2022-10-01T14:52:02.253Z,17.29
2022-10-01T14:54:30.247Z,17.21
2022-10-01T14:56:57.104Z,17.25
2022-10-01T14:59:37.039Z,17.39
2022-10-01T15:02:17.421Z,17.24
2022-10-01T15:04:48.727Z,17.19
2022-10-01T15:07:17.220Z,17.03
2022-10-01T15:09:45.670Z,17.16
2022-10-01T15:12:14.085Z,17.00
2022-10-01T15:14:41.358Z,16.94
2022-10-01T15:17:16.595Z,16.86
2022-10-01T15:19:45.195Z,16.88
2022-10-01T15:22:13.151Z,16.69
2022-10-01T15:24:46.525Z,16.79
2022-10-01T15:27:15.720Z,16.74
2022-10-01T15:29:43.001Z,16.70
2022-10-01T15:32:22.567Z,16.56
2022-10-01T15:34:55.240Z,16.41
2022-10-01T15:37:34.736Z,16.61
2022-10-01T15:40:02.286Z,16.44
2022-10-01T15:42:31.640Z,16.21
2022-10-01T15:45:23.081Z,16.50
2022-10-01T15:47:56.998Z,16.45
2022-10-01T15:50:32.406Z,16.40
2022-10-01T15:53:23.418Z,16.34
2022-10-01T15:55:52.515Z,16.32
2022-10-01T15:58:22.136Z,16.21
2022-10-01T16:01:04.116Z,16.12
2022-10-01T16:03:33.693Z,16.02
2022-10-01T16:06:02.581Z,16.08
2022-10-01T16:08:34.668Z,16.11
2022-10-01T16:11:18.778Z,16.02
2022-10-01T16:13:50.632Z,15.87
2022-10-01T16:16:24.119Z,15.97
2022-10-01T16:19:18.794Z,16.21
2022-10-01T16:22:17.428Z,16.05
2022-10-01T16:24:48.957Z,16.17
2022-10-01T16:27:18.811Z,16.21
2022-10-01T16:29:54.677Z,16.23
2022-10-01T16:32:21.330Z,16.14
2022-10-01T16:34:47.949Z,16.12
2022-10-01T16:37:15.450Z,16.23
2022-10-01T16:39:45.069Z,16.32
2022-10-01T16:42:24.794Z,16.36
2022-10-01T16:44:51.856Z,16.38
2022-10-01T16:47:18.491Z,16.28
2022-10-01T16:49:47.153Z,16.33
2022-10-01T16:52:16.581Z,16.28
2022-10-01T16:54:44.540Z,16.31
2022-10-01T16:57:11.449Z,16.24
2022-10-01T16:59:38.080Z,16.11
2022-10-01T17:02:04.771Z,16.05
2022-10-01T17:04:33.949Z,15.97
2022-10-01T17:07:01.252Z,15.86
2022-10-01T17:09:27.958Z,15.79
2022-10-01T17:11:54.950Z,15.79
2022-10-01T17:14:22.215Z,15.66
2022-10-01T17:16:50.842Z,15.60
2022-10-01T17:19:18.583Z,15.58
2022-10-01T17:21:45.822Z,15.53
2022-10-01T17:24:13.119Z,15.52
2022-10-01T17:26:42.014Z,15.42
2022-10-01T17:29:09.998Z,15.41
2022-10-01T17:31:46.649Z,15.38
2022-10-01T17:34:16.879Z,15.37
2022-10-01T17:36:43.529Z,15.38
2022-10-01T17:39:10.331Z,15.36
2022-10-01T17:41:36.900Z,15.29
2022-10-01T17:44:03.487Z,15.34
2022-10-01T17:46:30.989Z,15.30
2022-10-01T17:48:57.803Z,15.22
2022-10-01T17:51:27.427Z,15.19
2022-10-01T17:53:55.058Z,15.19
2022-10-01T17:56:21.798Z,15.20
2022-10-01T17:58:48.516Z,15.17
2022-10-01T18:01:19.656Z,15.18
2022-10-01T18:03:46.616Z,15.14
2022-10-01T18:06:16.242Z,15.16
2022-10-01T18:08:58.154Z,15.13
2022-10-01T18:11:26.834Z,15.14
2022-10-01T18:13:53.481Z,15.13
2022-10-01T18:16:20.200Z,15.11
2022-10-01T18:21:40.295Z,15.02
2022-10-01T18:24:07.142Z,15.05
2022-10-01T18:26:34.143Z,14.97
2022-10-01T18:29:01.144Z,14.98
2022-10-01T18:31:36.723Z,14.99
2022-10-01T18:34:10.604Z,14.96
2022-10-01T18:37:03.009Z,14.88
2022-10-01T18:39:49.747Z,14.89
2022-10-01T18:42:22.117Z,14.85
2022-10-01T18:45:16.294Z,14.87
2022-10-01T18:47:54.911Z,14.90
2022-10-01T18:50:26.136Z,14.91
2022-10-01T18:52:58.442Z,14.92
2022-10-01T18:56:09.388Z,14.91
2022-10-01T18:59:19.464Z,14.90
2022-10-01T19:02:04.727Z,14.89
2022-10-01T19:04:34.422Z,14.89
2022-10-01T19:07:18.814Z,14.90
2022-10-01T19:09:52.118Z,14.90
2022-10-01T19:12:40.702Z,14.88
2022-10-01T19:15:17.318Z,14.86
2022-10-01T19:18:11.839Z,14.74
2022-10-01T19:20:48.137Z,14.66
2022-10-01T19:23:20.609Z,14.68
2022-10-01T19:25:54.968Z,14.63
2022-10-01T19:28:40.099Z,14.71
2022-10-01T19:31:12.822Z,14.74
2022-10-01T19:33:47.461Z,14.66
2022-10-01T19:36:25.601Z,14.62
2022-10-01T19:38:54.177Z,14.58
2022-10-01T19:41:48.381Z,14.42
2022-10-01T19:44:28.606Z,14.35
2022-10-01T19:46:58.391Z,14.32
2022-10-01T19:49:38.498Z,14.25
2022-10-01T19:52:18.346Z,14.30
2022-10-01T19:55:05.846Z,14.25
2022-10-01T19:57:39.079Z,14.12
2022-10-01T20:00:12.388Z,14.25
2022-10-01T20:03:11.229Z,14.27
2022-10-01T20:05:53.206Z,14.31
2022-10-01T20:08:46.303Z,14.15
2022-10-01T20:11:23.682Z,14.32
2022-10-01T20:14:02.228Z,14.22
2022-10-01T20:16:29.036Z,14.21
2022-10-01T20:19:07.877Z,14.29
2022-10-01T20:22:00.485Z,14.30
2022-10-01T20:24:49.269Z,14.21
2022-10-01T20:27:52.624Z,14.15
2022-10-01T20:30:21.431Z,13.92
2022-10-01T20:33:06.430Z,14.13
2022-10-01T20:35:46.808Z,14.10
2022-10-01T20:38:17.477Z,14.11
2022-10-01T20:40:50.859Z,14.00
2022-10-01T20:43:31.373Z,13.82
2022-10-01T20:46:00.257Z,14.01
2022-10-01T20:48:32.574Z,13.93
2022-10-01T20:51:30.868Z,14.03
2022-10-01T20:54:04.274Z,14.01
2022-10-01T20:56:35.167Z,14.02
2022-10-01T20:59:21.958Z,14.02
2022-10-01T21:02:23.879Z,14.02
2022-10-01T21:05:04.489Z,14.10
2022-10-01T21:08:08.566Z,14.20
2022-10-01T21:10:48.744Z,14.17
2022-10-01T21:13:17.384Z,14.24
2022-10-01T21:15:55.145Z,14.25
2022-10-01T21:18:40.050Z,14.30
2022-10-01T21:21:30.105Z,14.32
2022-10-01T21:24:06.995Z,14.34
2022-10-01T21:26:43.804Z,14.28
2022-10-01T21:29:22.115Z,14.24
2022-10-01T21:32:12.658Z,14.21
2022-10-01T21:35:15.715Z,14.23
2022-10-01T21:37:56.178Z,14.20
2022-10-01T21:41:18.267Z,14.31
2022-10-01T21:44:11.303Z,14.41
2022-10-01T21:47:07.518Z,14.43
2022-10-01T21:49:48.829Z,14.46
2022-10-01T21:52:44.438Z,14.49
2022-10-01T21:55:38.517Z,14.51
2022-10-01T21:58:21.029Z,14.53
2022-10-01T22:00:57.909Z,14.58
2022-10-01T22:03:57.728Z,14.70
2022-10-01T22:06:33.112Z,14.68
2022-10-01T22:09:09.103Z,14.69
2022-10-01T22:11:39.622Z,14.55
2022-10-01T22:14:25.635Z,14.48
2022-10-01T22:16:56.366Z,14.35
2022-10-01T22:19:29.244Z,14.29
2022-10-01T22:22:04.967Z,14.30
2022-10-01T22:24:54.877Z,14.13
2022-10-01T22:27:47.637Z,14.13
2022-10-01T22:30:19.078Z,14.01
2022-10-01T22:32:53.394Z,13.94
2022-10-01T22:35:28.870Z,13.97
2022-10-01T22:38:00.431Z,13.86
2022-10-01T22:40:34.770Z,13.85
2022-10-01T22:43:12.557Z,13.75
2022-10-01T22:46:00.495Z,13.80
2022-10-01T22:48:30.069Z,13.76
2022-10-01T22:51:02.765Z,13.77
2022-10-01T22:53:47.206Z,13.77
2022-10-01T22:56:21.894Z,13.73
2022-10-01T22:59:07.321Z,13.73
2022-10-01T23:01:44.362Z,13.81
2022-10-01T23:04:20.341Z,13.75
2022-10-01T23:07:05.317Z,13.74
2022-10-01T23:09:49.264Z,13.73
2022-10-01T23:12:15.783Z,13.75
2022-10-01T23:14:45.967Z,13.76
2022-10-01T23:17:25.220Z,13.75
2022-10-01T23:20:03.870Z,13.72
2022-10-01T23:22:45.812Z,13.66
2022-10-01T23:25:39.977Z,13.63
2022-10-01T23:28:51.237Z,13.63
2022-10-01T23:31:25.064Z,13.60
2022-10-01T23:33:54.554Z,13.60
2022-10-01T23:36:30.084Z,13.55
2022-10-01T23:39:08.736Z,13.72
2022-10-01T23:41:40.955Z,13.76
2022-10-01T23:44:15.954Z,13.70
2022-10-01T23:46:43.667Z,13.63
2022-10-01T23:49:15.435Z,13.66
2022-10-01T23:51:54.124Z,13.66
2022-10-01T23:54:32.439Z,13.61
2022-10-01T23:57:14.351Z,13.55
2022-10-01T23:59:45.201Z,13.41
